KTPA/TPA METAR and TAF weather

Enter ICAO airport designator
Station Type Date Time Source
KTPA METAR 2019/02/16 06:53 UTC NOAA

KTPA 160653Z 00000KT 10SM CLR 17/16 A2992 RMK AO2 SLP130 T01720161


Station Type Date Time Source
KTPA Decoded METAR 2019/02/16 06:53 UTC NOAA

TAMPA INTERNATIONAL AIRPORT , FL, United States (KTPA) 27-58N 082-32W 11M
Feb 16, 2019 - 01:53 AM EST / 2019.02.16 0653 UTC
Wind: Calm:0
Visibility: 10 mile(s):0
Sky conditions: clear
Temperature: 63.0 F (17.2 C)
Dew Point: 61.0 F (16.1 C)
Relative Humidity: 93%
Pressure (altimeter): 29.92 in. Hg (1013 hPa)
ob: KTPA 160653Z 00000KT 10SM CLR 17/16 A2992 RMK AO2 SLP130 T01720161
cycle: 7

Station Type Date Time Source
KTPA TAF 2019/02/16 06:22 UTC NOAA

TAF KTPA 160520Z 1606/1712 VRB04KT P6SM BKN250
FM160900 VRB03KT 6SM BR SCT008 SCT030
FM161400 22010KT P6SM SCT025 BKN250
FM170200 VRB04KT P6SM BKN250


Example: see airport list